^^
Saratoga-Weather Station Historical Data
Daily Summary for August 2, 2021 Units:  English    Metric   Both
Daily Weekly Monthly Yearly Custom
  High: Low: Average:
Temperature: 50.7 °F 44.4 °F 48.4 °F
Dew Point: 35.2 °F 33.8 °F 34.7 °F
Humidity: 68% 52% 59%
Wind Speed: 6mph 0.9mph 2.7mph
Wind Gust: 9mph - -
Wind- - WNW
Pressure: 30 in 29.9 in -
Precipitation: 0 in    
Historical Graphs
 
 
Tabular Data for August 2, 2021
Time Temperature Dew Point Pressure Wind Wind Speed Wind Gust Humidity Rainfall Rate (Hourly) solar
00:02 50.7 °F 33.8 °F 29.9 in West 0.9 mph 7 mph 52% 0 in 0 W/m2
00:07 50.7 °F 33.8 °F 29.9 in West 4 mph 4 mph 52% 0 in 0 W/m2
00:12 50.7 °F 34.2 °F 29.9 in North 2 mph 4 mph 53% 0 in 0 W/m2
00:17 50.7 °F 34.2 °F 29.9 in WNW 2.9 mph 5 mph 53% 0 in 0 W/m2
00:22 50.7 °F 34.2 °F 29.9 in NW 4 mph 7 mph 53% 0 in 0 W/m2
00:27 50.5 °F 34 °F 29.9 in WNW 2 mph 3 mph 53% 0 in 0 W/m2
00:32 50.4 °F 34.3 °F 29.9 in West 2 mph 5 mph 54% 0 in 0 W/m2
00:37 50.2 °F 34.2 °F 29.9 in WSW 2 mph 4 mph 54% 0 in 0 W/m2
00:42 50.2 °F 34.2 °F 29.9 in WNW 2.9 mph 5 mph 54% 0 in 0 W/m2
00:47 50.2 °F 34.7 °F 29.9 in West 2.9 mph 4 mph 55% 0 in 0 W/m2
00:52 50 °F 34.5 °F 29.9 in WNW 4 mph 6 mph 55% 0 in 0 W/m2
00:57 49.8 °F 34.3 °F 29.9 in SW 6 mph 9 mph 55% 0 in 0 W/m2
01:02 49.8 °F 34.3 °F 29.9 in WSW 2.9 mph 4 mph 55% 0 in 0 W/m2
01:07 49.6 °F 34.2 °F 29.9 in West 2 mph 9 mph 55% 0 in 0 W/m2
01:12 49.6 °F 34.5 °F 29.9 in WNW 2 mph 2 mph 56% 0 in 0 W/m2
01:17 49.6 °F 34.5 °F 29.9 in West 4 mph 4 mph 56% 0 in 0 W/m2
01:22 49.6 °F 34.5 °F 29.9 in WNW 2 mph 4 mph 56% 0 in 0 W/m2
01:27 49.5 °F 34.3 °F 29.9 in West 2.9 mph 7 mph 56% 0 in 0 W/m2
01:32 49.5 °F 34.9 °F 29.9 in WNW 4 mph 4 mph 57% 0 in 0 W/m2
01:37 49.3 °F 34.2 °F 29.9 in West 2.9 mph 7 mph 56% 0 in 0 W/m2
01:42 49.3 °F 34.7 °F 29.9 in WNW 2 mph 6 mph 57% 0 in 0 W/m2
01:47 49.3 °F 34.7 °F 29.9 in WNW 4 mph 7 mph 57% 0 in 0 W/m2
01:52 49.1 °F 34.9 °F 29.9 in West 2.9 mph 3 mph 58% 0 in 0 W/m2
01:57 48.9 °F 34.9 °F 29.9 in West 2 mph 6 mph 58% 0 in 0 W/m2
02:02 48.7 °F 34.7 °F 29.9 in WNW 2 mph 3 mph 58% 0 in 0 W/m2
02:07 48.7 °F 34.7 °F 29.9 in WSW 2 mph 4 mph 58% 0 in 0 W/m2
02:12 48.7 °F 35.1 °F 29.9 in WNW 2 mph 6 mph 59% 0 in 0 W/m2
02:17 48.6 °F 34.9 °F 29.9 in West 2.9 mph 7 mph 59% 0 in 0 W/m2
02:22 48.6 °F 34.9 °F 29.9 in West 2 mph 6 mph 59% 0 in 0 W/m2
02:27 48.4 °F 34.7 °F 29.9 in West 2.9 mph 5 mph 59% 0 in 0 W/m2
02:32 48.2 °F 34.9 °F 29.9 in NW 4.9 mph 8 mph 60% 0 in 0 W/m2
02:37 48 °F 34.9 °F 29.9 in WNW 2.9 mph 5 mph 60% 0 in 0 W/m2
02:42 47.8 °F 34.7 °F 29.9 in WSW 2 mph 4 mph 60% 0 in 0 W/m2
02:47 47.8 °F 35.1 °F 29.9 in WNW 2 mph 4 mph 61% 0 in 0 W/m2
02:52 47.7 °F 34.9 °F 29.9 in West 2.9 mph 4 mph 61% 0 in 0 W/m2
02:57 47.5 °F 34.7 °F 29.9 in WNW 4 mph 4 mph 61% 0 in 0 W/m2
03:02 47.5 °F 35.1 °F 29.9 in NW 2.9 mph 4 mph 62% 0 in 0 W/m2
03:07 47.1 °F 34.7 °F 29.9 in West 4 mph 5 mph 62% 0 in 0 W/m2
03:12 47.1 °F 34.7 °F 29.9 in WSW 2 mph 4 mph 62% 0 in 0 W/m2
03:17 46.9 °F 34.5 °F 29.9 in West 4 mph 4 mph 62% 0 in 0 W/m2
03:22 46.8 °F 34.9 °F 29.9 in West 2 mph 5 mph 63% 0 in 0 W/m2
03:27 46.8 °F 35.2 °F 29.9 in West 2.9 mph 6 mph 64% 0 in 0 W/m2
03:32 46.6 °F 35.1 °F 29.9 in West 2 mph 2 mph 64% 0 in 0 W/m2
03:37 46.4 °F 34.9 °F 29.9 in West 2.9 mph 3 mph 64% 0 in 0 W/m2
03:42 46.2 °F 35.1 °F 29.9 in WNW 2 mph 7 mph 65% 0 in 0 W/m2
03:47 45.9 °F 34.7 °F 29.9 in WNW 2.9 mph 4 mph 65% 0 in 0 W/m2
03:52 45.7 °F 35.1 °F 29.9 in West 2.9 mph 7 mph 66% 0 in 0 W/m2
03:57 45.3 °F 34.7 °F 29.9 in WNW 2 mph 3 mph 66% 0 in 0 W/m2
04:02 45.3 °F 34.7 °F 29.9 in West 2 mph 3 mph 66% 0 in 0 W/m2
04:07 45.1 °F 34.9 °F 29.9 in WNW 0.9 mph 6 mph 67% 0 in 0 W/m2
04:12 45 °F 34.7 °F 29.9 in NW 2 mph 4 mph 67% 0 in 0 W/m2
04:17 44.8 °F 34.9 °F 30 in WNW 2 mph 4 mph 68% 0 in 0 W/m2
04:22 44.4 °F 34.5 °F 30 in West 2 mph 4 mph 68% 0 in 0 W/m2
Juneau County Weather
Compliments of Weather Underground - 2 mb